Aérodrome :
LOGIN :

S'inscrire | Disclaimer

   EN    FR    IT 

 










Légende :    VFR   VFR Marginal   IFR   IFR Intensif   IFR Très Intensif
Visi : 
Plafond : 
>= 8 km
>= 3000ft
5 à 8 km
1000 à 3000 ft
1500m à 5 km
500 à 1000 ft
800 à 1500m
200 à 500 ft
< 800m
< 200 ft
Symboles :   Orages  Brouillard  Fortes neiges  Fortes précipitations  Vent > 20 kt
SIGMETs :   Divers  Orages  Givrage  Turbulence  Onde Orograph.  Cendres Volcan.







- Altitude de l'aérodrome : 586 ft
- Code IATA : IEV


UKKK - Zhuliany

DERNIER METAR :
  • 210230Z 25002MPS CAVOK 15/13 Q1018 R26/CLRD70 NOSIG

METARs EXPIRÉS :
  • 210200Z 24002MPS CAVOK 15/13 Q1018 R26/70D NOSIG
  • 210130Z 25002MPS CAVOK 15/13 Q1018 R26/70D NOSIG
  • 210100Z 24002MPS CAVOK 15/13 Q1018 R26/70D NOSIG
  • 210030Z 23002MPS CAVOK 15/13 Q1018 R26/CLRD70 NOSIG
  • 210000Z 23002MPS CAVOK 15/13 Q1018 R26/70D NOSIG

TAF TAF UKKK
Valide du 21 à 00h jusqu'au 22 à 00h UTC


202303Z 2100/2124 21003G08MPS 9999 SCT030 TX29/2112Z TN15/2102Z
BECMG 2105/2107 18005G10MPS
Pas de NOTAMs connus pour ce terrain.



MET'MAP, la Météo Aéronautique d'un coup d'oeil ! - Copyright ORBIFLY Décembre 2007 - Disclaimer

ORBIFLY MET'MAP TEAM :

Programmation & Développement : Alexandra Zaïnal
Conception & Développement : Baudouin d'Aumeries
Co-Programmation & Développement : Marc-Olivier Méhu
Soutien technique & logistique : Manuel Goepfert

Contact : metmap@orbifly.com




SOURCES & CREDITS :

   NOAA